sensor_id;sensor_type;location;lat;lon;timestamp;P1;durP1;ratioP1;P2;durP2;ratioP2
55288;SDS011;41154;45.394;5.734;2022-07-15T00:01:44;5.00;;;2.90;;
55288;SDS011;41154;45.394;5.734;2022-07-15T00:04:10;2.85;;;2.58;;
55288;SDS011;41154;45.394;5.734;2022-07-15T00:06:35;3.20;;;2.60;;
55288;SDS011;41154;45.394;5.734;2022-07-15T00:09:01;3.17;;;2.38;;
55288;SDS011;41154;45.394;5.734;2022-07-15T00:11:27;4.85;;;2.80;;
55288;SDS011;41154;45.394;5.734;2022-07-15T00:13:56;2.83;;;2.53;;
55288;SDS011;41154;45.394;5.734;2022-07-15T00:16:21;3.50;;;2.65;;
55288;SDS011;41154;45.394;5.734;2022-07-15T00:18:47;3.50;;;3.00;;
55288;SDS011;41154;45.394;5.734;2022-07-15T00:21:13;2.88;;;2.65;;
55288;SDS011;41154;45.394;5.734;2022-07-15T00:23:39;3.38;;;2.83;;
55288;SDS011;41154;45.394;5.734;2022-07-15T00:26:05;3.92;;;2.88;;
55288;SDS011;41154;45.394;5.734;2022-07-15T00:28:30;5.05;;;2.72;;
55288;SDS011;41154;45.394;5.734;2022-07-15T00:30:56;3.88;;;2.70;;
55288;SDS011;41154;45.394;5.734;2022-07-15T00:33:22;4.15;;;2.92;;
55288;SDS011;41154;45.394;5.734;2022-07-15T00:35:48;7.50;;;2.70;;
55288;SDS011;41154;45.394;5.734;2022-07-15T00:38:15;3.35;;;2.60;;
55288;SDS011;41154;45.394;5.734;2022-07-15T00:40:47;3.20;;;2.63;;
55288;SDS011;41154;45.394;5.734;2022-07-15T00:43:15;3.47;;;2.70;;
55288;SDS011;41154;45.394;5.734;2022-07-15T00:45:42;2.88;;;2.58;;
55288;SDS011;41154;45.394;5.734;2022-07-15T00:48:09;5.55;;;2.92;;
55288;SDS011;41154;45.394;5.734;2022-07-15T00:50:36;4.93;;;2.97;;
55288;SDS011;41154;45.394;5.734;2022-07-15T00:53:03;4.22;;;2.90;;
55288;SDS011;41154;45.394;5.734;2022-07-15T00:55:33;3.50;;;3.17;;
55288;SDS011;41154;45.394;5.734;2022-07-15T00:58:05;5.22;;;3.00;;
55288;SDS011;41154;45.394;5.734;2022-07-15T01:00:33;4.13;;;2.85;;
55288;SDS011;41154;45.394;5.734;2022-07-15T01:02:59;3.10;;;2.70;;
55288;SDS011;41154;45.394;5.734;2022-07-15T01:05:26;4.03;;;2.92;;
55288;SDS011;41154;45.394;5.734;2022-07-15T01:07:54;4.63;;;3.38;;
55288;SDS011;41154;45.394;5.734;2022-07-15T01:10:20;3.67;;;3.28;;
55288;SDS011;41154;45.394;5.734;2022-07-15T01:12:49;3.28;;;2.97;;
55288;SDS011;41154;45.394;5.734;2022-07-15T01:15:19;3.88;;;3.47;;
55288;SDS011;41154;45.394;5.734;2022-07-15T01:17:45;3.60;;;3.30;;
55288;SDS011;41154;45.394;5.734;2022-07-15T01:20:13;4.63;;;3.53;;
55288;SDS011;41154;45.394;5.734;2022-07-15T01:22:50;3.42;;;2.90;;
55288;SDS011;41154;45.394;5.734;2022-07-15T01:25:17;3.85;;;2.97;;
55288;SDS011;41154;45.394;5.734;2022-07-15T01:27:43;3.50;;;3.03;;
55288;SDS011;41154;45.394;5.734;2022-07-15T01:30:14;4.07;;;2.85;;
55288;SDS011;41154;45.394;5.734;2022-07-15T01:32:40;3.65;;;3.05;;
55288;SDS011;41154;45.394;5.734;2022-07-15T01:35:06;3.55;;;2.72;;
55288;SDS011;41154;45.394;5.734;2022-07-15T01:37:36;3.15;;;2.85;;
55288;SDS011;41154;45.394;5.734;2022-07-15T01:40:02;3.92;;;2.75;;
55288;SDS011;41154;45.394;5.734;2022-07-15T01:42:28;2.85;;;2.65;;
55288;SDS011;41154;45.394;5.734;2022-07-15T01:44:54;4.88;;;2.80;;
55288;SDS011;41154;45.394;5.734;2022-07-15T01:47:20;3.00;;;2.63;;
55288;SDS011;41154;45.394;5.734;2022-07-15T01:49:46;3.20;;;2.72;;
55288;SDS011;41154;45.394;5.734;2022-07-15T01:52:12;4.28;;;2.72;;
55288;SDS011;41154;45.394;5.734;2022-07-15T01:54:40;4.45;;;3.10;;
55288;SDS011;41154;45.394;5.734;2022-07-15T01:57:07;5.30;;;3.35;;
55288;SDS011;41154;45.394;5.734;2022-07-15T01:59:45;3.83;;;3.42;;
55288;SDS011;41154;45.394;5.734;2022-07-15T02:02:16;4.78;;;3.67;;
55288;SDS011;41154;45.394;5.734;2022-07-15T02:04:42;3.67;;;3.00;;
55288;SDS011;41154;45.394;5.734;2022-07-15T02:07:07;3.60;;;3.10;;
55288;SDS011;41154;45.394;5.734;2022-07-15T02:09:35;4.22;;;3.20;;
55288;SDS011;41154;45.394;5.734;2022-07-15T02:12:01;4.05;;;3.35;;
55288;SDS011;41154;45.394;5.734;2022-07-15T02:14:35;3.63;;;3.33;;
55288;SDS011;41154;45.394;5.734;2022-07-15T02:17:03;4.15;;;3.17;;
55288;SDS011;41154;45.394;5.734;2022-07-15T02:19:33;4.35;;;3.17;;
55288;SDS011;41154;45.394;5.734;2022-07-15T02:21:59;5.45;;;2.88;;
55288;SDS011;41154;45.394;5.734;2022-07-15T02:24:27;4.63;;;3.50;;
55288;SDS011;41154;45.394;5.734;2022-07-15T02:26:53;4.43;;;2.90;;
55288;SDS011;41154;45.394;5.734;2022-07-15T02:29:19;5.13;;;3.17;;
55288;SDS011;41154;45.394;5.734;2022-07-15T02:31:45;3.00;;;2.70;;
55288;SDS011;41154;45.394;5.734;2022-07-15T02:34:11;3.90;;;3.05;;
55288;SDS011;41154;45.394;5.734;2022-07-15T02:36:38;7.35;;;3.08;;
55288;SDS011;41154;45.394;5.734;2022-07-15T02:39:05;6.82;;;3.20;;
55288;SDS011;41154;45.394;5.734;2022-07-15T02:41:32;4.60;;;3.15;;
55288;SDS011;41154;45.394;5.734;2022-07-15T02:44:03;3.50;;;3.03;;
55288;SDS011;41154;45.394;5.734;2022-07-15T02:46:30;3.42;;;3.13;;
55288;SDS011;41154;45.394;5.734;2022-07-15T02:48:57;4.05;;;3.38;;
55288;SDS011;41154;45.394;5.734;2022-07-15T02:51:24;4.90;;;3.03;;
55288;SDS011;41154;45.394;5.734;2022-07-15T02:53:50;3.60;;;3.00;;
55288;SDS011;41154;45.394;5.734;2022-07-15T02:56:19;4.97;;;2.92;;
55288;SDS011;41154;45.394;5.734;2022-07-15T02:58:45;3.63;;;3.33;;
55288;SDS011;41154;45.394;5.734;2022-07-15T03:01:11;5.18;;;3.70;;
55288;SDS011;41154;45.394;5.734;2022-07-15T03:03:38;3.83;;;3.08;;
55288;SDS011;41154;45.394;5.734;2022-07-15T03:06:06;5.00;;;4.03;;
55288;SDS011;41154;45.394;5.734;2022-07-15T03:08:34;5.38;;;3.13;;
55288;SDS011;41154;45.394;5.734;2022-07-15T03:11:00;5.63;;;3.00;;
55288;SDS011;41154;45.394;5.734;2022-07-15T03:13:26;3.20;;;2.90;;
55288;SDS011;41154;45.394;5.734;2022-07-15T03:15:52;5.35;;;3.03;;
55288;SDS011;41154;45.394;5.734;2022-07-15T03:18:20;4.75;;;3.13;;
55288;SDS011;41154;45.394;5.734;2022-07-15T03:20:47;3.50;;;3.10;;
55288;SDS011;41154;45.394;5.734;2022-07-15T03:23:14;4.35;;;3.10;;
55288;SDS011;41154;45.394;5.734;2022-07-15T03:25:40;4.82;;;3.20;;
55288;SDS011;41154;45.394;5.734;2022-07-15T03:28:10;3.47;;;3.17;;
55288;SDS011;41154;45.394;5.734;2022-07-15T03:30:37;3.22;;;2.80;;
55288;SDS011;41154;45.394;5.734;2022-07-15T03:33:03;4.20;;;3.00;;
55288;SDS011;41154;45.394;5.734;2022-07-15T03:35:29;5.38;;;3.00;;
55288;SDS011;41154;45.394;5.734;2022-07-15T03:37:55;3.78;;;3.13;;
55288;SDS011;41154;45.394;5.734;2022-07-15T03:40:21;3.58;;;3.28;;
55288;SDS011;41154;45.394;5.734;2022-07-15T03:42:47;3.88;;;3.17;;
55288;SDS011;41154;45.394;5.734;2022-07-15T03:45:12;5.28;;;3.30;;
55288;SDS011;41154;45.394;5.734;2022-07-15T03:47:39;7.03;;;3.05;;
55288;SDS011;41154;45.394;5.734;2022-07-15T03:50:09;5.78;;;3.30;;
55288;SDS011;41154;45.394;5.734;2022-07-15T03:52:36;3.53;;;2.92;;
55288;SDS011;41154;45.394;5.734;2022-07-15T03:55:03;3.22;;;2.70;;
55288;SDS011;41154;45.394;5.734;2022-07-15T03:57:31;3.67;;;2.85;;
55288;SDS011;41154;45.394;5.734;2022-07-15T03:59:57;4.45;;;3.00;;
55288;SDS011;41154;45.394;5.734;2022-07-15T04:02:23;3.50;;;2.90;;
55288;SDS011;41154;45.394;5.734;2022-07-15T04:04:48;6.07;;;2.70;;
55288;SDS011;41154;45.394;5.734;2022-07-15T04:07:14;4.65;;;3.00;;
55288;SDS011;41154;45.394;5.734;2022-07-15T04:09:40;4.63;;;2.85;;
55288;SDS011;41154;45.394;5.734;2022-07-15T04:12:07;5.43;;;3.47;;
55288;SDS011;41154;45.394;5.734;2022-07-15T04:14:38;3.75;;;3.28;;
55288;SDS011;41154;45.394;5.734;2022-07-15T04:17:03;5.00;;;3.17;;
55288;SDS011;41154;45.394;5.734;2022-07-15T04:19:35;3.72;;;3.10;;
55288;SDS011;41154;45.394;5.734;2022-07-15T04:22:03;6.75;;;3.47;;
55288;SDS011;41154;45.394;5.734;2022-07-15T04:24:35;3.97;;;3.40;;
55288;SDS011;41154;45.394;5.734;2022-07-15T04:27:01;3.92;;;3.20;;
55288;SDS011;41154;45.394;5.734;2022-07-15T04:29:27;3.78;;;3.30;;
55288;SDS011;41154;45.394;5.734;2022-07-15T04:31:54;5.28;;;3.45;;
55288;SDS011;41154;45.394;5.734;2022-07-15T04:34:26;3.70;;;3.17;;
55288;SDS011;41154;45.394;5.734;2022-07-15T04:36:52;3.30;;;3.00;;
55288;SDS011;41154;45.394;5.734;2022-07-15T04:39:18;4.32;;;3.42;;
55288;SDS011;41154;45.394;5.734;2022-07-15T04:41:44;6.50;;;3.35;;
55288;SDS011;41154;45.394;5.734;2022-07-15T04:44:10;4.18;;;3.20;;
55288;SDS011;41154;45.394;5.734;2022-07-15T04:46:35;3.55;;;3.05;;
55288;SDS011;41154;45.394;5.734;2022-07-15T04:49:20;5.43;;;3.00;;
55288;SDS011;41154;45.394;5.734;2022-07-15T04:52:04;4.03;;;3.23;;
55288;SDS011;41154;45.394;5.734;2022-07-15T04:54:32;7.05;;;3.40;;
55288;SDS011;41154;45.394;5.734;2022-07-15T04:56:58;3.75;;;2.90;;
55288;SDS011;41154;45.394;5.734;2022-07-15T04:59:25;4.03;;;3.22;;
55288;SDS011;41154;45.394;5.734;2022-07-15T05:01:51;3.47;;;3.10;;
55288;SDS011;41154;45.394;5.734;2022-07-15T05:04:30;6.72;;;3.22;;
55288;SDS011;41154;45.394;5.734;2022-07-15T05:06:55;10.77;;;3.83;;
55288;SDS011;41154;45.394;5.734;2022-07-15T05:09:23;4.88;;;3.63;;
55288;SDS011;41154;45.394;5.734;2022-07-15T05:11:49;4.65;;;3.50;;
55288;SDS011;41154;45.394;5.734;2022-07-15T05:14:16;6.60;;;3.60;;
55288;SDS011;41154;45.394;5.734;2022-07-15T05:16:42;5.93;;;3.40;;
55288;SDS011;41154;45.394;5.734;2022-07-15T05:19:08;3.58;;;3.00;;
55288;SDS011;41154;45.394;5.734;2022-07-15T05:21:34;4.07;;;3.40;;
55288;SDS011;41154;45.394;5.734;2022-07-15T05:24:00;3.72;;;3.30;;
55288;SDS011;41154;45.394;5.734;2022-07-15T05:26:26;6.07;;;3.20;;
55288;SDS011;41154;45.394;5.734;2022-07-15T05:28:52;4.07;;;3.35;;
55288;SDS011;41154;45.394;5.734;2022-07-15T05:31:17;3.70;;;3.13;;
55288;SDS011;41154;45.394;5.734;2022-07-15T05:33:47;8.63;;;2.80;;
55288;SDS011;41154;45.394;5.734;2022-07-15T05:36:13;4.25;;;2.75;;
55288;SDS011;41154;45.394;5.734;2022-07-15T05:38:42;2.58;;;2.28;;
55288;SDS011;41154;45.394;5.734;2022-07-15T05:41:08;4.43;;;2.80;;
55288;SDS011;41154;45.394;5.734;2022-07-15T05:43:35;3.05;;;2.75;;
55288;SDS011;41154;45.394;5.734;2022-07-15T05:46:02;4.47;;;2.88;;
55288;SDS011;41154;45.394;5.734;2022-07-15T05:48:31;2.78;;;2.58;;
55288;SDS011;41154;45.394;5.734;2022-07-15T05:50:57;5.35;;;2.72;;
55288;SDS011;41154;45.394;5.734;2022-07-15T05:53:24;3.42;;;2.63;;
55288;SDS011;41154;45.394;5.734;2022-07-15T05:55:50;3.78;;;2.70;;
55288;SDS011;41154;45.394;5.734;2022-07-15T05:58:19;3.33;;;2.42;;
55288;SDS011;41154;45.394;5.734;2022-07-15T06:00:45;3.03;;;2.55;;
55288;SDS011;41154;45.394;5.734;2022-07-15T06:03:11;2.88;;;2.30;;
55288;SDS011;41154;45.394;5.734;2022-07-15T06:05:40;6.65;;;2.55;;
55288;SDS011;41154;45.394;5.734;2022-07-15T06:08:07;3.88;;;2.40;;
55288;SDS011;41154;45.394;5.734;2022-07-15T06:10:37;2.17;;;2.00;;
55288;SDS011;41154;45.394;5.734;2022-07-15T06:13:03;3.20;;;2.05;;
55288;SDS011;41154;45.394;5.734;2022-07-15T06:15:30;4.63;;;2.47;;
55288;SDS011;41154;45.394;5.734;2022-07-15T06:17:57;2.58;;;2.05;;
55288;SDS011;41154;45.394;5.734;2022-07-15T06:20:24;3.17;;;2.05;;
55288;SDS011;41154;45.394;5.734;2022-07-15T06:22:50;4.85;;;2.08;;
55288;SDS011;41154;45.394;5.734;2022-07-15T06:25:18;5.47;;;2.42;;
55288;SDS011;41154;45.394;5.734;2022-07-15T06:27:46;2.50;;;2.30;;
55288;SDS011;41154;45.394;5.734;2022-07-15T06:30:12;3.60;;;2.22;;
55288;SDS011;41154;45.394;5.734;2022-07-15T06:32:38;4.47;;;2.00;;
55288;SDS011;41154;45.394;5.734;2022-07-15T06:35:04;2.90;;;1.92;;
55288;SDS011;41154;45.394;5.734;2022-07-15T06:37:30;2.03;;;1.83;;
55288;SDS011;41154;45.394;5.734;2022-07-15T06:39:57;2.28;;;2.03;;
55288;SDS011;41154;45.394;5.734;2022-07-15T06:42:22;2.30;;;2.10;;
55288;SDS011;41154;45.394;5.734;2022-07-15T06:44:59;3.22;;;2.00;;
55288;SDS011;41154;45.394;5.734;2022-07-15T06:47:25;2.00;;;1.75;;
55288;SDS011;41154;45.394;5.734;2022-07-15T06:49:51;2.40;;;1.70;;
55288;SDS011;41154;45.394;5.734;2022-07-15T06:52:18;5.68;;;2.60;;
55288;SDS011;41154;45.394;5.734;2022-07-15T06:54:43;2.63;;;2.08;;
55288;SDS011;41154;45.394;5.734;2022-07-15T06:57:09;3.00;;;2.10;;
55288;SDS011;41154;45.394;5.734;2022-07-15T06:59:38;3.45;;;2.00;;
55288;SDS011;41154;45.394;5.734;2022-07-15T07:02:04;2.20;;;2.00;;
55288;SDS011;41154;45.394;5.734;2022-07-15T07:04:30;3.50;;;1.67;;
55288;SDS011;41154;45.394;5.734;2022-07-15T07:06:56;3.20;;;1.90;;
55288;SDS011;41154;45.394;5.734;2022-07-15T07:09:22;2.17;;;1.98;;
55288;SDS011;41154;45.394;5.734;2022-07-15T07:11:50;3.55;;;1.83;;
55288;SDS011;41154;45.394;5.734;2022-07-15T07:14:16;2.95;;;1.60;;
55288;SDS011;41154;45.394;5.734;2022-07-15T07:16:42;5.25;;;1.70;;
55288;SDS011;41154;45.394;5.734;2022-07-15T07:19:07;4.38;;;1.90;;
55288;SDS011;41154;45.394;5.734;2022-07-15T07:21:33;2.88;;;1.70;;
55288;SDS011;41154;45.394;5.734;2022-07-15T07:23:59;2.13;;;1.92;;
55288;SDS011;41154;45.394;5.734;2022-07-15T07:26:25;2.55;;;1.65;;
55288;SDS011;41154;45.394;5.734;2022-07-15T07:28:51;3.75;;;1.70;;
55288;SDS011;41154;45.394;5.734;2022-07-15T07:31:17;6.85;;;1.88;;
55288;SDS011;41154;45.394;5.734;2022-07-15T07:33:43;2.22;;;1.50;;
55288;SDS011;41154;45.394;5.734;2022-07-15T07:36:09;4.70;;;1.88;;
55288;SDS011;41154;45.394;5.734;2022-07-15T07:38:35;3.25;;;1.75;;
55288;SDS011;41154;45.394;5.734;2022-07-15T07:41:01;3.95;;;1.40;;
55288;SDS011;41154;45.394;5.734;2022-07-15T07:43:27;1.50;;;1.40;;
55288;SDS011;41154;45.394;5.734;2022-07-15T07:45:53;6.60;;;1.90;;
55288;SDS011;41154;45.394;5.734;2022-07-15T07:48:19;3.10;;;1.48;;
55288;SDS011;41154;45.394;5.734;2022-07-15T07:50:45;1.85;;;1.40;;
55288;SDS011;41154;45.394;5.734;2022-07-15T07:53:12;2.63;;;1.80;;
55288;SDS011;41154;45.394;5.734;2022-07-15T07:55:38;3.25;;;1.50;;
55288;SDS011;41154;45.394;5.734;2022-07-15T07:58:05;3.30;;;1.50;;
55288;SDS011;41154;45.394;5.734;2022-07-15T08:00:31;2.60;;;1.85;;
55288;SDS011;41154;45.394;5.734;2022-07-15T08:02:57;3.13;;;1.50;;
55288;SDS011;41154;45.394;5.734;2022-07-15T08:05:25;1.95;;;1.50;;
55288;SDS011;41154;45.394;5.734;2022-07-15T08:08:05;1.77;;;1.63;;
55288;SDS011;41154;45.394;5.734;2022-07-15T08:10:38;2.90;;;1.60;;
55288;SDS011;41154;45.394;5.734;2022-07-15T08:13:05;3.67;;;1.65;;
55288;SDS011;41154;45.394;5.734;2022-07-15T08:15:31;4.00;;;1.67;;
55288;SDS011;41154;45.394;5.734;2022-07-15T08:17:57;1.90;;;1.70;;
55288;SDS011;41154;45.394;5.734;2022-07-15T08:20:23;2.25;;;1.65;;
55288;SDS011;41154;45.394;5.734;2022-07-15T08:22:49;2.65;;;1.70;;
55288;SDS011;41154;45.394;5.734;2022-07-15T08:25:15;2.78;;;1.60;;
55288;SDS011;41154;45.394;5.734;2022-07-15T08:27:41;2.05;;;1.30;;
55288;SDS011;41154;45.394;5.734;2022-07-15T08:30:07;1.75;;;1.20;;
55288;SDS011;41154;45.394;5.734;2022-07-15T08:32:32;1.50;;;1.38;;
55288;SDS011;41154;45.394;5.734;2022-07-15T08:34:58;1.60;;;1.50;;
55288;SDS011;41154;45.394;5.734;2022-07-15T08:37:27;3.92;;;1.60;;
55288;SDS011;41154;45.394;5.734;2022-07-15T08:39:53;1.50;;;1.40;;
55288;SDS011;41154;45.394;5.734;2022-07-15T08:42:18;2.58;;;1.63;;
55288;SDS011;41154;45.394;5.734;2022-07-15T08:44:44;1.70;;;1.60;;
55288;SDS011;41154;45.394;5.734;2022-07-15T08:47:10;1.55;;;1.45;;
55288;SDS011;41154;45.394;5.734;2022-07-15T08:49:36;2.15;;;1.55;;
55288;SDS011;41154;45.394;5.734;2022-07-15T08:52:05;3.17;;;1.50;;
55288;SDS011;41154;45.394;5.734;2022-07-15T08:54:31;2.63;;;1.40;;
55288;SDS011;41154;45.394;5.734;2022-07-15T08:56:58;7.03;;;1.38;;
55288;SDS011;41154;45.394;5.734;2022-07-15T08:59:24;2.22;;;1.40;;
55288;SDS011;41154;45.394;5.734;2022-07-15T09:01:50;1.60;;;1.30;;
55288;SDS011;41154;45.394;5.734;2022-07-15T09:04:16;1.27;;;1.17;;
55288;SDS011;41154;45.394;5.734;2022-07-15T09:06:43;4.95;;;1.60;;
55288;SDS011;41154;45.394;5.734;2022-07-15T09:11:43;1.70;;;1.40;;
55288;SDS011;41154;45.394;5.734;2022-07-15T09:14:13;1.73;;;1.35;;
55288;SDS011;41154;45.394;5.734;2022-07-15T09:16:39;2.35;;;1.33;;
55288;SDS011;41154;45.394;5.734;2022-07-15T09:19:05;1.65;;;1.40;;
55288;SDS011;41154;45.394;5.734;2022-07-15T09:21:30;4.50;;;1.40;;
55288;SDS011;41154;45.394;5.734;2022-07-15T09:23:56;3.20;;;1.30;;
55288;SDS011;41154;45.394;5.734;2022-07-15T09:26:42;3.25;;;1.30;;
55288;SDS011;41154;45.394;5.734;2022-07-15T09:29:08;1.48;;;1.30;;
55288;SDS011;41154;45.394;5.734;2022-07-15T09:31:56;2.00;;;1.30;;
55288;SDS011;41154;45.394;5.734;2022-07-15T09:35:01;3.63;;;1.38;;
55288;SDS011;41154;45.394;5.734;2022-07-15T09:37:29;1.30;;;1.00;;
55288;SDS011;41154;45.394;5.734;2022-07-15T09:39:56;2.15;;;1.25;;
55288;SDS011;41154;45.394;5.734;2022-07-15T09:42:22;4.13;;;1.38;;
55288;SDS011;41154;45.394;5.734;2022-07-15T09:44:49;3.00;;;1.38;;
55288;SDS011;41154;45.394;5.734;2022-07-15T09:47:17;2.38;;;1.67;;
55288;SDS011;41154;45.394;5.734;2022-07-15T09:49:44;2.60;;;1.45;;
55288;SDS011;41154;45.394;5.734;2022-07-15T09:52:12;2.38;;;1.58;;
55288;SDS011;41154;45.394;5.734;2022-07-15T09:54:41;1.52;;;1.42;;
55288;SDS011;41154;45.394;5.734;2022-07-15T09:57:09;2.17;;;1.42;;
55288;SDS011;41154;45.394;5.734;2022-07-15T09:59:44;8.45;;;1.50;;
55288;SDS011;41154;45.394;5.734;2022-07-15T10:02:11;1.63;;;1.48;;
55288;SDS011;41154;45.394;5.734;2022-07-15T10:04:37;1.60;;;1.50;;
55288;SDS011;41154;45.394;5.734;2022-07-15T10:07:04;1.80;;;1.60;;
55288;SDS011;41154;45.394;5.734;2022-07-15T10:09:31;2.08;;;1.50;;
55288;SDS011;41154;45.394;5.734;2022-07-15T10:12:06;2.67;;;1.55;;
55288;SDS011;41154;45.394;5.734;2022-07-15T10:14:37;1.73;;;1.52;;
55288;SDS011;41154;45.394;5.734;2022-07-15T10:26:22;3.63;;;1.40;;
55288;SDS011;41154;45.394;5.734;2022-07-15T10:29:04;1.90;;;1.70;;
55288;SDS011;41154;45.394;5.734;2022-07-15T10:39:18;1.83;;;1.65;;
55288;SDS011;41154;45.394;5.734;2022-07-15T10:41:56;1.70;;;1.60;;
55288;SDS011;41154;45.394;5.734;2022-07-15T10:44:25;3.53;;;1.70;;
55288;SDS011;41154;45.394;5.734;2022-07-15T10:49:37;3.63;;;1.80;;
55288;SDS011;41154;45.394;5.734;2022-07-15T10:52:25;2.17;;;1.80;;
55288;SDS011;41154;45.394;5.734;2022-07-15T10:54:59;2.33;;;1.80;;
55288;SDS011;41154;45.394;5.734;2022-07-15T11:00:04;3.45;;;2.00;;
55288;SDS011;41154;45.394;5.734;2022-07-15T11:02:31;2.85;;;1.80;;
55288;SDS011;41154;45.394;5.734;2022-07-15T11:05:19;2.60;;;1.80;;
55288;SDS011;41154;45.394;5.734;2022-07-15T11:07:44;2.22;;;2.00;;
55288;SDS011;41154;45.394;5.734;2022-07-15T11:15:11;2.30;;;1.73;;
55288;SDS011;41154;45.394;5.734;2022-07-15T11:17:40;3.05;;;1.50;;
55288;SDS011;41154;45.394;5.734;2022-07-15T11:20:08;4.60;;;1.60;;
55288;SDS011;41154;45.394;5.734;2022-07-15T11:22:56;2.40;;;1.70;;
55288;SDS011;41154;45.394;5.734;2022-07-15T11:25:27;4.38;;;1.80;;
55288;SDS011;41154;45.394;5.734;2022-07-15T11:28:12;1.60;;;1.40;;
55288;SDS011;41154;45.394;5.734;2022-07-15T11:30:49;2.63;;;1.77;;
55288;SDS011;41154;45.394;5.734;2022-07-15T11:33:19;1.75;;;1.65;;
55288;SDS011;41154;45.394;5.734;2022-07-15T11:35:55;2.30;;;1.75;;
55288;SDS011;41154;45.394;5.734;2022-07-15T11:38:25;2.35;;;1.73;;
55288;SDS011;41154;45.394;5.734;2022-07-15T11:40:54;1.60;;;1.48;;
55288;SDS011;41154;45.394;5.734;2022-07-15T11:43:40;2.10;;;1.48;;
55288;SDS011;41154;45.394;5.734;2022-07-15T11:46:26;1.67;;;1.40;;
55288;SDS011;41154;45.394;5.734;2022-07-15T11:48:54;2.40;;;1.50;;
55288;SDS011;41154;45.394;5.734;2022-07-15T11:51:24;3.22;;;1.60;;
55288;SDS011;41154;45.394;5.734;2022-07-15T11:53:51;4.38;;;1.58;;
55288;SDS011;41154;45.394;5.734;2022-07-15T11:56:17;1.98;;;1.30;;
55288;SDS011;41154;45.394;5.734;2022-07-15T11:58:45;3.38;;;1.63;;
55288;SDS011;41154;45.394;5.734;2022-07-15T12:01:15;3.30;;;1.63;;
55288;SDS011;41154;45.394;5.734;2022-07-15T12:03:47;2.45;;;1.50;;
55288;SDS011;41154;45.394;5.734;2022-07-15T12:06:16;2.22;;;1.40;;
55288;SDS011;41154;45.394;5.734;2022-07-15T12:08:48;1.40;;;1.30;;
55288;SDS011;41154;45.394;5.734;2022-07-15T12:11:30;1.45;;;1.30;;
55288;SDS011;41154;45.394;5.734;2022-07-15T12:14:02;2.10;;;1.30;;
55288;SDS011;41154;45.394;5.734;2022-07-15T12:16:32;3.20;;;1.33;;
55288;SDS011;41154;45.394;5.734;2022-07-15T12:19:15;3.60;;;1.40;;
55288;SDS011;41154;45.394;5.734;2022-07-15T12:21:43;1.63;;;1.25;;
55288;SDS011;41154;45.394;5.734;2022-07-15T12:26:42;1.42;;;1.33;;
55288;SDS011;41154;45.394;5.734;2022-07-15T12:29:21;1.08;;;1.05;;
55288;SDS011;41154;45.394;5.734;2022-07-15T12:34:18;1.30;;;1.20;;
55288;SDS011;41154;45.394;5.734;2022-07-15T12:36:53;3.08;;;1.23;;
55288;SDS011;41154;45.394;5.734;2022-07-15T12:39:21;1.55;;;1.20;;
55288;SDS011;41154;45.394;5.734;2022-07-15T12:42:00;1.90;;;1.30;;
55288;SDS011;41154;45.394;5.734;2022-07-15T12:44:40;2.15;;;1.38;;
55288;SDS011;41154;45.394;5.734;2022-07-15T12:47:06;2.60;;;1.40;;
55288;SDS011;41154;45.394;5.734;2022-07-15T12:49:53;2.78;;;1.27;;
55288;SDS011;41154;45.394;5.734;2022-07-15T12:54:51;1.40;;;1.30;;
55288;SDS011;41154;45.394;5.734;2022-07-15T12:57:19;2.28;;;1.20;;
55288;SDS011;41154;45.394;5.734;2022-07-15T12:59:50;3.58;;;1.35;;
55288;SDS011;41154;45.394;5.734;2022-07-15T13:02:17;1.20;;;1.10;;
55288;SDS011;41154;45.394;5.734;2022-07-15T13:04:42;4.57;;;1.30;;
55288;SDS011;41154;45.394;5.734;2022-07-15T13:07:08;3.03;;;1.25;;
55288;SDS011;41154;45.394;5.734;2022-07-15T13:09:34;2.72;;;1.20;;
55288;SDS011;41154;45.394;5.734;2022-07-15T13:12:00;2.42;;;1.10;;
55288;SDS011;41154;45.394;5.734;2022-07-15T13:14:26;2.03;;;1.20;;
55288;SDS011;41154;45.394;5.734;2022-07-15T13:16:52;2.67;;;1.13;;
55288;SDS011;41154;45.394;5.734;2022-07-15T13:19:17;4.30;;;1.20;;
55288;SDS011;41154;45.394;5.734;2022-07-15T13:21:43;3.13;;;1.27;;
55288;SDS011;41154;45.394;5.734;2022-07-15T13:24:09;2.25;;;1.40;;
55288;SDS011;41154;45.394;5.734;2022-07-15T13:26:35;1.25;;;1.15;;
55288;SDS011;41154;45.394;5.734;2022-07-15T13:29:00;1.40;;;1.30;;
55288;SDS011;41154;45.394;5.734;2022-07-15T13:31:26;1.88;;;1.20;;
55288;SDS011;41154;45.394;5.734;2022-07-15T13:33:52;1.98;;;0.90;;
55288;SDS011;41154;45.394;5.734;2022-07-15T13:36:17;1.30;;;1.20;;
55288;SDS011;41154;45.394;5.734;2022-07-15T13:38:43;2.33;;;1.25;;
55288;SDS011;41154;45.394;5.734;2022-07-15T13:41:09;3.13;;;1.30;;
55288;SDS011;41154;45.394;5.734;2022-07-15T13:43:34;2.13;;;1.15;;
55288;SDS011;41154;45.394;5.734;2022-07-15T13:46:00;1.55;;;1.25;;
55288;SDS011;41154;45.394;5.734;2022-07-15T13:48:26;2.45;;;1.40;;
55288;SDS011;41154;45.394;5.734;2022-07-15T13:50:51;1.92;;;1.20;;
55288;SDS011;41154;45.394;5.734;2022-07-15T13:53:36;2.17;;;1.17;;
55288;SDS011;41154;45.394;5.734;2022-07-15T13:56:01;2.05;;;1.10;;
55288;SDS011;41154;45.394;5.734;2022-07-15T13:58:27;1.55;;;1.25;;
55288;SDS011;41154;45.394;5.734;2022-07-15T14:00:53;1.60;;;1.10;;
55288;SDS011;41154;45.394;5.734;2022-07-15T14:03:19;1.20;;;1.05;;
55288;SDS011;41154;45.394;5.734;2022-07-15T14:05:45;1.60;;;1.17;;
55288;SDS011;41154;45.394;5.734;2022-07-15T14:08:11;1.70;;;1.33;;
55288;SDS011;41154;45.394;5.734;2022-07-15T14:10:37;1.15;;;1.08;;
55288;SDS011;41154;45.394;5.734;2022-07-15T14:13:02;1.27;;;1.10;;
55288;SDS011;41154;45.394;5.734;2022-07-15T14:15:28;3.85;;;1.25;;
55288;SDS011;41154;45.394;5.734;2022-07-15T14:17:55;1.95;;;1.00;;
55288;SDS011;41154;45.394;5.734;2022-07-15T14:20:20;4.55;;;1.27;;
55288;SDS011;41154;45.394;5.734;2022-07-15T14:22:47;4.65;;;1.30;;
55288;SDS011;41154;45.394;5.734;2022-07-15T14:25:13;0.93;;;0.82;;
55288;SDS011;41154;45.394;5.734;2022-07-15T14:27:39;2.25;;;1.02;;
55288;SDS011;41154;45.394;5.734;2022-07-15T14:30:05;1.35;;;1.00;;
55288;SDS011;41154;45.394;5.734;2022-07-15T14:32:32;1.80;;;1.10;;
55288;SDS011;41154;45.394;5.734;2022-07-15T14:34:59;2.03;;;1.10;;
55288;SDS011;41154;45.394;5.734;2022-07-15T14:37:25;1.70;;;1.15;;
55288;SDS011;41154;45.394;5.734;2022-07-15T14:39:51;3.88;;;1.40;;
55288;SDS011;41154;45.394;5.734;2022-07-15T14:42:17;1.40;;;1.15;;
55288;SDS011;41154;45.394;5.734;2022-07-15T14:44:42;3.42;;;1.42;;
55288;SDS011;41154;45.394;5.734;2022-07-15T14:47:08;2.47;;;1.13;;
55288;SDS011;41154;45.394;5.734;2022-07-15T14:49:34;2.38;;;1.20;;
55288;SDS011;41154;45.394;5.734;2022-07-15T14:52:00;2.58;;;1.20;;
55288;SDS011;41154;45.394;5.734;2022-07-15T14:54:26;2.30;;;1.30;;
55288;SDS011;41154;45.394;5.734;2022-07-15T14:56:52;2.05;;;1.40;;
55288;SDS011;41154;45.394;5.734;2022-07-15T14:59:17;4.93;;;1.42;;
55288;SDS011;41154;45.394;5.734;2022-07-15T15:01:43;3.60;;;1.40;;
55288;SDS011;41154;45.394;5.734;2022-07-15T15:04:09;4.70;;;1.58;;
55288;SDS011;41154;45.394;5.734;2022-07-15T15:06:35;2.42;;;1.40;;
55288;SDS011;41154;45.394;5.734;2022-07-15T15:09:00;2.78;;;1.40;;
55288;SDS011;41154;45.394;5.734;2022-07-15T15:11:26;2.60;;;1.38;;
55288;SDS011;41154;45.394;5.734;2022-07-15T15:13:52;2.95;;;1.40;;
55288;SDS011;41154;45.394;5.734;2022-07-15T15:16:18;4.05;;;1.42;;
55288;SDS011;41154;45.394;5.734;2022-07-15T15:18:43;3.67;;;1.70;;
55288;SDS011;41154;45.394;5.734;2022-07-15T15:21:09;4.28;;;1.25;;
55288;SDS011;41154;45.394;5.734;2022-07-15T15:23:35;2.65;;;1.63;;
55288;SDS011;41154;45.394;5.734;2022-07-15T15:26:00;4.97;;;1.38;;
55288;SDS011;41154;45.394;5.734;2022-07-15T15:28:45;2.00;;;1.60;;
55288;SDS011;41154;45.394;5.734;2022-07-15T15:31:10;1.92;;;1.33;;